Time;durP1;ratioP1;P1;durP2;ratioP2;P2;SDS_P1;SDS_P2;PMS_P1;PMS_P2;Temp;Humidity;BMP_temperature;BMP_pressure;BME280_temperature;BME280_humidity;BME280_pressure;Samples;Min_cycle;Max_cycle;Signal;HPM_P1;HPM_P2
2022/11/24 00:00:49;;;;;;;;;3.50;1.50;;;;;11.36;67.10;99966.91;5093885;27;45803;-76
2022/11/24 00:03:15;;;;;;;;;2.75;1.75;;;;;11.37;67.07;99965.13;5094388;27;45617;-76
2022/11/24 00:05:40;;;;;;;;;3.00;2.00;;;;;11.40;67.10;99974.50;5094513;27;46243;-76
2022/11/24 00:08:05;;;;;;;;;2.00;1.25;;;;;11.40;67.13;99964.84;5093077;27;47355;-76
2022/11/24 00:10:32;;;;;;;;;2.00;1.00;;;;;11.40;67.29;99964.00;5094737;27;45575;-76
2022/11/24 00:12:57;;;;;;;;;3.75;1.00;;;;;11.38;67.08;99977.28;5094846;27;45587;-78
2022/11/24 00:15:22;;;;;;;;;2.75;1.75;;;;;11.34;67.25;99984.56;5094463;27;47292;-77
2022/11/24 00:17:48;;;;;;;;;2.75;1.25;;;;;11.36;67.27;99976.56;5094468;27;45722;-77
2022/11/24 00:20:15;;;;;;;;;5.00;2.00;;;;;11.35;67.26;99980.97;5094744;27;45778;-76
2022/11/24 00:22:40;;;;;;;;;8.25;2.50;;;;;11.32;67.48;99973.38;5094449;27;45836;-77
2022/11/24 00:28:28;;;;;;;;;2.00;1.00;;;;;11.32;67.29;99983.88;5093986;27;45781;-77
2022/11/24 00:30:53;;;;;;;;;2.00;1.25;;;;;11.35;67.08;99978.34;5094388;27;45713;-77
2022/11/24 00:33:19;;;;;;;;;3.00;2.00;;;;;11.35;67.34;99964.41;5094595;27;45852;-76
2022/11/24 00:35:44;;;;;;;;;1.75;1.00;;;;;11.38;67.04;99958.91;5094450;27;47794;-77
2022/11/24 00:38:09;;;;;;;;;2.50;2.00;;;;;11.36;67.13;99942.47;5094084;27;47022;-77
2022/11/24 00:40:36;;;;;;;;;1.50;0.50;;;;;11.43;67.12;99943.63;5095023;27;45732;-77
2022/11/24 00:43:02;;;;;;;;;3.25;2.00;;;;;11.43;66.99;99937.53;5095077;27;45774;-77
2022/11/24 00:45:27;;;;;;;;;5.50;3.75;;;;;11.44;66.74;99929.56;5094904;27;46403;-76
2022/11/24 00:47:53;;;;;;;;;3.25;1.00;;;;;11.48;66.50;99940.59;5094292;27;45846;-77
2022/11/24 00:50:18;;;;;;;;;3.00;1.75;;;;;11.49;66.38;99923.91;5093235;27;46027;-76
2022/11/24 00:52:44;;;;;;;;;1.50;1.00;;;;;11.49;66.07;99950.97;5094392;27;45907;-76
2022/11/24 00:58:31;;;;;;;;;1.00;1.00;;;;;11.53;66.10;99902.53;5087764;27;45814;-77
2022/11/24 01:01:13;;;;;;;;;1.00;0.75;;;;;11.55;65.93;99931.25;5093725;27;45811;-77
2022/11/24 01:03:41;;;;;;;;;1.50;0.75;;;;;11.56;65.68;99932.88;5093622;27;45843;-76
2022/11/24 01:06:16;;;;;;;;;0.25;0.00;;;;;11.57;65.33;99934.56;5093511;27;47287;-76
2022/11/24 01:08:43;;;;;;;;;1.00;0.00;;;;;11.55;65.18;99945.16;5092147;27;46533;-76
2022/11/24 01:11:15;;;;;;;;;0.75;0.00;;;;;11.51;65.09;99945.56;5093045;27;45903;-77
2022/11/24 01:13:42;;;;;;;;;1.50;1.00;;;;;11.54;65.01;99948.78;5093593;27;45917;-76
2022/11/24 01:16:40;;;;;;;;;0.00;0.00;;;;;11.56;64.49;99959.97;5092957;27;47582;-77
2022/11/24 01:19:06;;;;;;;;;0.75;0.75;;;;;11.56;64.82;99964.38;5029648;28;45874;-75
2022/11/24 01:21:31;;;;;;;;;0.75;0.00;;;;;11.55;64.51;99984.53;5029685;28;45920;-78
2022/11/24 01:23:56;;;;;;;;;0.00;0.00;;;;;11.51;64.36;99984.91;5029601;28;45915;-75
2022/11/24 01:26:22;;;;;;;;;0.00;0.00;;;;;11.50;64.29;100002.44;5029910;28;45586;-77
2022/11/24 01:28:55;;;;;;;;;0.00;0.00;;;;;11.45;64.31;99995.94;5029554;28;47349;-77
2022/11/24 01:31:21;;;;;;;;;0.25;0.00;;;;;11.41;64.17;99984.88;5029993;28;45968;-76
2022/11/24 01:33:46;;;;;;;;;1.50;1.00;;;;;11.44;64.19;100002.16;5029611;28;45920;-75
2022/11/24 01:36:12;;;;;;;;;0.00;0.00;;;;;11.39;63.95;100015.63;5029205;28;46527;-77
2022/11/24 01:38:37;;;;;;;;;0.00;0.00;;;;;11.37;64.06;100014.94;5029254;28;46159;-76
2022/11/24 01:44:27;;;;;;;;;0.00;0.00;;;;;11.29;64.23;100033.94;5029551;28;45657;-76
2022/11/24 01:47:18;;;;;;;;;0.00;0.00;;;;;11.29;64.34;100044.41;5029222;28;45822;-77
2022/11/24 01:49:47;;;;;;;;;0.00;0.00;;;;;11.15;64.28;100026.41;4990281;28;46157;-77
2022/11/24 01:52:21;;;;;;;;;0.00;0.00;;;;;11.24;64.57;100051.00;4989788;28;45803;-76
2022/11/24 01:54:52;;;;;;;;;0.00;0.00;;;;;11.21;64.71;100054.72;5020891;28;45828;-77
2022/11/24 01:57:30;;;;;;;;;0.00;0.00;;;;;11.21;65.01;100057.34;5032230;28;46821;-76
2022/11/24 02:00:01;;;;;;;;;1.00;0.00;;;;;11.20;65.06;100055.69;5049332;28;45897;-76
2022/11/24 02:02:28;;;;;;;;;0.75;0.00;;;;;11.21;65.29;100064.38;5049107;28;45766;-76
2022/11/24 02:04:57;;;;;;;;;1.00;0.00;;;;;11.14;65.34;100058.81;5049370;28;45736;-76
2022/11/24 02:07:23;;;;;;;;;0.00;0.00;;;;;11.14;65.41;100076.31;5049220;28;47433;-77
2022/11/24 02:09:54;;;;;;;;;1.00;0.00;;;;;11.09;65.51;100070.63;5031600;28;46206;-77
2022/11/24 02:12:21;;;;;;;;;1.00;0.00;;;;;11.12;65.70;100094.78;5049075;28;45679;-76
2022/11/24 02:14:47;;;;;;;;;0.50;0.00;;;;;11.11;65.75;100079.22;5048699;28;45823;-76
2022/11/24 02:17:12;;;;;;;;;2.00;0.00;;;;;11.11;65.91;100090.53;5048821;28;46761;-75
2022/11/24 02:19:57;;;;;;;;;0.00;0.00;;;;;11.11;65.93;100097.56;5049364;28;46484;-77
2022/11/24 02:22:35;;;;;;;;;0.00;0.00;;;;;11.08;66.02;100092.53;5049353;28;46003;-76
2022/11/24 02:25:29;;;;;;;;;0.75;0.00;;;;;11.06;66.27;100091.88;5048452;28;45803;-76
2022/11/24 02:27:56;;;;;;;;;0.00;0.00;;;;;11.01;66.33;100097.47;5091064;27;45828;-75
2022/11/24 02:30:21;;;;;;;;;0.00;0.00;;;;;10.97;66.51;100098.66;5092338;27;46104;-77
2022/11/24 02:32:47;;;;;;;;;0.25;0.00;;;;;10.97;66.82;100110.94;5092489;27;46093;-76
2022/11/24 02:35:13;;;;;;;;;1.00;0.00;;;;;10.99;66.72;100124.75;5090970;27;45850;-76
2022/11/24 02:37:38;;;;;;;;;0.50;0.00;;;;;10.97;66.95;100116.16;5091997;27;47702;-76
2022/11/24 02:40:04;;;;;;;;;0.00;0.00;;;;;10.98;67.00;100123.09;5092218;27;45861;-76
2022/11/24 02:42:35;;;;;;;;;1.00;0.00;;;;;10.86;67.11;100109.19;5091870;27;45553;-75
2022/11/24 02:45:01;;;;;;;;;0.00;0.00;;;;;10.90;67.34;100121.91;5092215;27;45661;-76
2022/11/24 02:47:27;;;;;;;;;1.00;0.00;;;;;10.94;67.53;100151.34;5092637;27;46298;-77
2022/11/24 02:49:52;;;;;;;;;2.00;1.00;;;;;10.85;67.66;100145.03;5092576;27;46178;-77
2022/11/24 02:52:18;;;;;;;;;1.00;1.00;;;;;10.89;67.71;100159.56;5091959;27;46035;-76
2022/11/24 02:54:44;;;;;;;;;2.25;1.00;;;;;10.87;67.77;100171.97;5090597;27;45907;-75
2022/11/24 03:00:44;;;;;;;;;1.00;0.25;;;;;10.76;68.28;100165.91;5082351;27;46133;-77
2022/11/24 03:03:10;;;;;;;;;1.00;0.00;;;;;10.75;68.30;100172.91;5091805;27;45652;-75
2022/11/24 03:05:37;;;;;;;;;1.50;0.50;;;;;10.74;68.35;100184.34;5091981;27;45987;-77
2022/11/24 03:08:02;;;;;;;;;3.00;1.00;;;;;10.73;68.66;100187.94;5091460;27;47522;-76
2022/11/24 03:10:28;;;;;;;;;0.00;0.00;;;;;10.72;68.80;100191.50;5091643;27;45804;-77
2022/11/24 03:12:53;;;;;;;;;2.00;1.00;;;;;10.71;68.89;100216.03;5091590;27;45824;-77
2022/11/24 03:15:19;;;;;;;;;2.00;0.00;;;;;10.69;68.86;100223.19;5091793;27;45483;-75
2022/11/24 03:17:44;;;;;;;;;1.00;0.00;;;;;10.60;69.02;100215.19;5091717;27;47215;-77
2022/11/24 03:20:10;;;;;;;;;1.25;0.25;;;;;10.62;69.10;100210.69;5091807;27;47163;-75
2022/11/24 03:22:36;;;;;;;;;1.00;1.00;;;;;10.63;69.21;100215.81;5091461;27;45658;-74
2022/11/24 03:25:01;;;;;;;;;0.25;0.00;;;;;10.60;69.51;100221.28;5092056;27;45646;-77
2022/11/24 03:30:48;;;;;;;;;0.00;0.00;;;;;10.61;69.26;100224.72;5091687;27;46025;-76
2022/11/24 03:33:14;;;;;;;;;1.25;0.00;;;;;10.57;69.61;100232.00;5090371;27;45640;-75
2022/11/24 03:35:39;;;;;;;;;1.00;0.00;;;;;10.56;69.58;100227.72;5093694;27;45683;-76
2022/11/24 03:38:04;;;;;;;;;1.00;0.00;;;;;10.57;69.49;100232.00;5094854;27;47601;-77
2022/11/24 03:40:30;;;;;;;;;1.50;0.00;;;;;10.59;69.45;100232.69;5094589;27;46082;-77
2022/11/24 03:46:17;;;;;;;;;4.75;1.00;;;;;10.53;69.50;100238.41;5095074;27;45698;-76
2022/11/24 03:48:42;;;;;;;;;1.50;1.00;;;;;10.55;69.78;100233.06;5094676;27;46520;-76
2022/11/24 03:51:10;;;;;;;;;1.25;0.50;;;;;10.56;69.50;100238.19;5094912;27;46104;-78
2022/11/24 03:53:37;;;;;;;;;1.25;1.00;;;;;10.56;69.54;100235.56;5094500;27;45725;-77
2022/11/24 03:56:03;;;;;;;;;1.00;0.25;;;;;10.57;69.46;100239.03;5094823;27;45769;-77
2022/11/24 03:58:29;;;;;;;;;1.25;0.00;;;;;10.55;69.59;100249.63;5094831;27;45820;-77
2022/11/24 04:00:55;;;;;;;;;1.25;1.00;;;;;10.52;69.46;100257.72;5095200;27;45787;-77
2022/11/24 04:03:21;;;;;;;;;0.00;0.00;;;;;10.51;69.56;100253.44;5094856;27;45910;-77
2022/11/24 04:05:47;;;;;;;;;1.00;0.00;;;;;10.44;69.55;100255.66;5095271;27;45697;-77
2022/11/24 04:08:13;;;;;;;;;1.25;0.00;;;;;10.46;69.69;100260.81;5093957;27;47479;-77
2022/11/24 04:10:38;;;;;;;;;0.00;0.00;;;;;10.46;69.72;100261.63;5094743;27;46492;-77
2022/11/24 04:16:25;;;;;;;;;0.00;0.00;;;;;10.44;69.52;100267.94;5094229;27;45860;-78
2022/11/24 04:18:52;;;;;;;;;0.00;0.00;;;;;10.43;69.96;100272.31;5094221;27;46328;-77
2022/11/24 04:21:17;;;;;;;;;1.00;0.00;;;;;10.42;69.68;100277.66;5094842;27;46013;-76
2022/11/24 04:23:43;;;;;;;;;1.50;1.50;;;;;10.37;69.97;100272.78;5094760;27;45761;-77
2022/11/24 04:26:08;;;;;;;;;2.00;1.00;;;;;10.39;70.00;100284.00;5110339;27;46012;-77
2022/11/24 04:31:55;;;;;;;;;1.25;0.00;;;;;10.39;69.95;100284.00;5094026;27;45832;-76
2022/11/24 04:34:21;;;;;;;;;2.00;0.75;;;;;10.34;70.22;100277.44;5092271;27;46029;-77
2022/11/24 04:36:46;;;;;;;;;0.75;0.00;;;;;10.33;70.28;100281.00;5094353;27;45694;-77
2022/11/24 04:39:11;;;;;;;;;2.75;0.00;;;;;10.33;70.27;100289.69;5094525;27;46167;-76
2022/11/24 04:41:37;;;;;;;;;1.75;0.00;;;;;10.30;70.17;100286.47;5094101;27;46894;-75
2022/11/24 04:44:02;;;;;;;;;2.00;0.00;;;;;10.25;70.18;100286.00;5093366;27;45941;-77
2022/11/24 04:46:27;;;;;;;;;1.25;0.00;;;;;10.28;70.48;100289.19;5092130;27;45615;-77
2022/11/24 04:48:53;;;;;;;;;0.50;0.00;;;;;10.25;70.46;100297.28;5092839;27;46263;-77
2022/11/24 04:51:18;;;;;;;;;0.00;0.00;;;;;10.28;70.29;100307.53;5093911;27;46084;-76
2022/11/24 04:53:43;;;;;;;;;1.00;1.00;;;;;10.25;70.25;100304.31;5094311;27;45572;-76
2022/11/24 04:56:09;;;;;;;;;0.00;0.00;;;;;10.24;70.35;100307.88;5094155;27;45664;-77
2022/11/24 04:58:35;;;;;;;;;0.00;0.00;;;;;10.22;70.24;100307.97;5092456;27;46514;-77
2022/11/24 05:01:00;;;;;;;;;1.00;0.25;;;;;10.22;70.44;100307.97;5093783;27;45830;-77
2022/11/24 05:03:26;;;;;;;;;1.00;0.00;;;;;10.13;70.15;100303.41;5094087;27;45584;-76
2022/11/24 05:05:51;;;;;;;;;2.00;1.00;;;;;10.17;70.14;100309.28;5094128;27;45832;-77
2022/11/24 05:08:17;;;;;;;;;1.00;0.00;;;;;10.22;70.25;100320.22;5093664;27;47268;-77
2022/11/24 05:10:42;;;;;;;;;3.00;1.00;;;;;10.24;70.24;100316.56;5093701;27;46243;-76
2022/11/24 05:13:12;;;;;;;;;0.00;0.00;;;;;10.26;70.12;100322.50;5093215;27;45627;-76
2022/11/24 05:15:39;;;;;;;;;1.00;0.50;;;;;10.28;70.11;100327.63;5094099;27;45901;-76
2022/11/24 05:18:06;;;;;;;;;4.25;0.00;;;;;10.27;70.02;100329.41;5092026;27;48230;-77
2022/11/24 05:20:31;;;;;;;;;0.25;0.00;;;;;10.28;69.84;100327.63;5093432;27;47138;-77
2022/11/24 05:23:05;;;;;;;;;1.50;0.50;;;;;10.27;69.82;100328.56;5092879;27;45736;-77
2022/11/24 05:25:34;;;;;;;;;2.00;0.00;;;;;10.24;69.96;100329.66;5093202;27;45635;-77
2022/11/24 05:28:04;;;;;;;;;0.00;0.00;;;;;10.19;70.22;100325.72;5092482;27;47325;-77
2022/11/24 05:30:31;;;;;;;;;1.75;1.00;;;;;10.22;70.09;100328.09;5093260;27;46101;-75
2022/11/24 05:32:58;;;;;;;;;1.00;0.75;;;;;10.10;70.15;100309.69;5093456;27;45717;-77
2022/11/24 05:35:23;;;;;;;;;0.00;0.00;;;;;10.23;70.08;100330.59;5093157;27;45840;-76
2022/11/24 05:37:49;;;;;;;;;1.00;1.00;;;;;10.25;70.10;100325.25;5093163;27;47331;-76
2022/11/24 05:40:15;;;;;;;;;2.00;1.00;;;;;10.25;70.14;100333.94;5093161;27;45574;-76
2022/11/24 05:42:40;;;;;;;;;1.00;0.50;;;;;10.26;70.22;100340.00;5092867;27;45704;-77
2022/11/24 05:45:11;;;;;;;;;1.00;0.00;;;;;10.28;70.09;100340.72;5091985;27;45758;-76
2022/11/24 05:47:38;;;;;;;;;1.50;0.50;;;;;10.26;70.04;100338.22;5092835;27;47516;-76
2022/11/24 05:50:07;;;;;;;;;0.25;0.25;;;;;10.27;70.00;100339.06;5093082;27;46246;-77
2022/11/24 05:52:33;;;;;;;;;1.75;1.00;;;;;10.28;69.97;100340.72;5092603;27;45848;-77
2022/11/24 05:54:58;;;;;;;;;2.00;0.00;;;;;10.25;70.11;100344.44;5093058;27;45844;-76
2022/11/24 05:57:23;;;;;;;;;1.00;0.00;;;;;10.27;70.00;100354.75;5092963;27;46348;-77
2022/11/24 06:03:24;;;;;;;;;1.00;1.00;;;;;10.23;70.04;100361.19;5083715;27;46001;-77
2022/11/24 06:05:50;;;;;;;;;1.25;0.75;;;;;10.29;70.04;100366.81;5092779;27;45698;-77
2022/11/24 06:08:15;;;;;;;;;0.00;0.00;;;;;10.30;70.12;100363.25;5092377;27;45706;-76
2022/11/24 06:10:40;;;;;;;;;0.00;0.00;;;;;10.32;70.01;100366.56;5091559;27;48003;-76
2022/11/24 06:13:06;;;;;;;;;1.50;1.00;;;;;10.33;69.90;100370.03;5092512;27;45678;-78
2022/11/24 06:15:33;;;;;;;;;0.25;0.00;;;;;10.33;70.08;100376.09;5092960;27;45677;-77
2022/11/24 06:17:58;;;;;;;;;1.00;0.00;;;;;10.28;70.09;100369.53;5092830;27;46581;-77
2022/11/24 06:20:27;;;;;;;;;0.25;0.00;;;;;10.34;69.90;100377.78;5091012;27;46326;-76
2022/11/24 06:22:52;;;;;;;;;1.75;0.50;;;;;10.34;69.99;100385.63;5092377;27;45794;-77
2022/11/24 06:25:21;;;;;;;;;2.25;1.50;;;;;10.33;70.01;100380.50;5093079;27;45783;-77
2022/11/24 06:27:46;;;;;;;;;1.00;1.00;;;;;10.32;70.02;100386.66;5092509;27;47710;-78
2022/11/24 06:33:34;;;;;;;;;2.00;0.50;;;;;10.30;70.08;100386.81;5091892;27;45639;-76
2022/11/24 06:36:08;;;;;;;;;26.00;22.50;;;;;10.27;69.83;100381.78;5092298;27;45704;-76
2022/11/24 06:38:35;;;;;;;;;3.25;2.00;;;;;10.22;69.75;100375.22;5092363;27;45621;-77
2022/11/24 06:41:02;;;;;;;;;2.00;1.00;;;;;10.36;69.85;100396.00;5091093;27;47202;-77
2022/11/24 06:43:29;;;;;;;;;1.50;1.00;;;;;10.36;70.09;100407.31;5091627;27;45577;-76
2022/11/24 06:45:55;;;;;;;;;1.00;0.00;;;;;10.30;70.01;100396.44;5091967;27;45653;-75
2022/11/24 06:48:22;;;;;;;;;1.75;0.00;;;;;10.31;70.16;100403.34;5091704;27;46829;-76
2022/11/24 06:50:47;;;;;;;;;2.00;1.00;;;;;10.32;70.30;100405.00;5092568;27;46214;-77
2022/11/24 06:53:12;;;;;;;;;1.50;1.00;;;;;10.26;70.25;100400.22;5092287;27;45720;-74
2022/11/24 06:55:39;;;;;;;;;1.25;1.00;;;;;10.38;70.32;100422.88;5092490;27;45566;-75
2022/11/24 06:58:04;;;;;;;;;1.25;1.00;;;;;10.39;70.47;100427.19;5091995;27;47425;-76
2022/11/24 07:03:53;;;;;;;;;0.25;0.25;;;;;10.34;70.23;100417.06;5084057;27;45769;-76
2022/11/24 07:06:21;;;;;;;;;2.00;1.00;;;;;10.40;70.34;100439.34;5091369;27;45817;-74
2022/11/24 07:08:46;;;;;;;;;3.00;1.00;;;;;10.43;70.08;100460.06;5091300;27;47234;-75
2022/11/24 07:11:15;;;;;;;;;3.50;1.50;;;;;10.43;70.22;100460.88;5094776;27;45989;-74
2022/11/24 07:13:41;;;;;;;;;3.25;2.00;;;;;10.36;70.44;100448.38;5094845;27;45930;-74
2022/11/24 07:19:28;;;;;;;;;1.00;1.00;;;;;10.44;70.53;100464.34;5095463;27;45569;-74
2022/11/24 07:21:54;;;;;;;;;0.75;0.00;;;;;10.43;70.70;100460.06;5095347;27;46081;-74
2022/11/24 07:24:19;;;;;;;;;1.75;1.00;;;;;10.41;70.68;100459.34;5095976;27;45953;-75
2022/11/24 07:26:45;;;;;;;;;4.50;3.50;;;;;10.42;70.76;100468.84;5095420;27;45970;-75
2022/11/24 07:29:10;;;;;;;;;0.75;0.75;;;;;10.42;70.80;100471.47;5095204;27;46856;-75
2022/11/24 07:31:35;;;;;;;;;0.75;0.75;;;;;10.36;70.82;100462.31;5094940;27;46250;-75
2022/11/24 07:34:01;;;;;;;;;5.00;1.00;;;;;10.38;70.97;100478.72;5095195;27;45597;-76
2022/11/24 07:36:26;;;;;;;;;2.00;0.75;;;;;10.33;70.93;100467.75;5095399;27;45575;-75
2022/11/24 07:38:51;;;;;;;;;3.00;2.00;;;;;10.35;70.88;100470.25;5095106;27;47234;-76
2022/11/24 07:41:18;;;;;;;;;2.00;0.00;;;;;10.34;70.61;100476.44;5095252;27;47301;-74
2022/11/24 07:43:44;;;;;;;;;1.25;1.00;;;;;10.32;71.08;100465.22;5094599;27;45584;-75
2022/11/24 07:49:31;;;;;;;;;2.75;2.00;;;;;10.33;71.07;100480.84;5095026;27;45870;-75
2022/11/24 07:51:56;;;;;;;;;3.00;1.50;;;;;10.35;71.16;100491.22;5094685;27;46329;-74
2022/11/24 07:54:22;;;;;;;;;4.00;2.75;;;;;10.36;71.27;100498.13;5095097;27;45660;-75
2022/11/24 07:56:48;;;;;;;;;2.75;2.00;;;;;10.36;71.09;100498.97;5093648;27;45862;-75
2022/11/24 07:59:13;;;;;;;;;2.75;1.75;;;;;10.32;71.27;100500.09;5093669;27;47496;-74
2022/11/24 08:05:00;;;;;;;;;6.50;3.00;;;;;10.37;71.25;100515.47;5083128;27;45972;-75
2022/11/24 08:07:25;;;;;;;;;3.25;2.00;;;;;10.38;71.23;100515.38;5095155;27;45898;-75
2022/11/24 08:09:51;;;;;;;;;4.25;3.00;;;;;10.38;71.35;100515.38;5094926;27;45574;-76
2022/11/24 08:12:20;;;;;;;;;2.00;2.00;;;;;10.39;71.50;100530.16;5094680;27;45535;-76
2022/11/24 08:14:50;;;;;;;;;3.00;2.00;;;;;10.37;71.25;100518.94;5094643;27;45697;-75
2022/11/24 08:17:19;;;;;;;;;3.25;2.00;;;;;10.36;71.23;100517.28;5094672;27;45858;-75
2022/11/24 08:19:44;;;;;;;;;2.50;2.00;;;;;10.41;71.21;100528.28;5094595;27;47729;-74
2022/11/24 08:22:09;;;;;;;;;3.00;3.00;;;;;10.37;71.49;100532.03;5093863;27;46071;-74
2022/11/24 08:24:35;;;;;;;;;3.00;3.00;;;;;10.42;71.03;100544.78;5093960;27;45796;-74
2022/11/24 08:27:00;;;;;;;;;4.00;3.00;;;;;10.44;71.23;100550.78;5093075;27;46048;-75
2022/11/24 08:29:30;;;;;;;;;6.75;5.00;;;;;10.45;71.27;100549.84;5094613;27;45662;-74
2022/11/24 08:35:19;;;;;;;;;6.00;3.00;;;;;10.52;71.74;100566.78;5094271;27;45643;-75
2022/11/24 08:37:45;;;;;;;;;3.50;3.00;;;;;10.55;71.63;100565.72;5094401;27;45627;-74
2022/11/24 08:40:11;;;;;;;;;3.00;2.00;;;;;10.52;71.72;100561.56;5094479;27;46967;-75
2022/11/24 08:42:36;;;;;;;;;6.25;3.25;;;;;10.52;71.81;100554.53;5094243;27;47163;-74
2022/11/24 08:45:02;;;;;;;;;4.00;3.50;;;;;10.56;71.73;100556.91;5093976;27;45654;-76
2022/11/24 08:47:28;;;;;;;;;5.50;3.00;;;;;10.56;71.77;100547.28;5094151;27;45771;-73
2022/11/24 08:49:53;;;;;;;;;3.50;2.00;;;;;10.61;71.84;100558.25;5093812;27;47611;-74
2022/11/24 08:52:18;;;;;;;;;3.25;3.00;;;;;10.58;71.76;100557.66;5093850;27;46907;-75
2022/11/24 08:54:44;;;;;;;;;2.00;2.00;;;;;10.61;71.71;100560.88;5092684;27;45605;-74
2022/11/24 08:57:10;;;;;;;;;4.25;2.50;;;;;10.62;71.96;100557.31;5094450;27;45706;-73
2022/11/24 08:59:36;;;;;;;;;2.75;2.00;;;;;10.62;71.99;100553.88;5093928;27;46837;-76
2022/11/24 09:05:24;;;;;;;;;4.00;2.00;;;;;10.62;71.95;100554.69;5089650;27;45997;-74
2022/11/24 09:07:49;;;;;;;;;2.00;2.00;;;;;10.65;71.91;100562.34;5094900;27;45696;-75
2022/11/24 09:10:16;;;;;;;;;2.00;2.00;;;;;10.61;71.60;100547.78;5096386;27;45808;-75
2022/11/24 09:12:46;;;;;;;;;1.00;0.75;;;;;10.60;72.00;100540.03;5093828;27;46800;-74
2022/11/24 09:15:12;;;;;;;;;4.25;2.00;;;;;10.65;71.98;100564.09;5094358;27;45638;-75
2022/11/24 09:17:38;;;;;;;;;4.00;1.50;;;;;10.69;71.79;100562.97;5094734;27;45533;-74
2022/11/24 09:20:04;;;;;;;;;5.50;1.50;;;;;10.72;71.78;100562.72;5095739;27;46377;-73
2022/11/24 09:22:30;;;;;;;;;4.75;2.00;;;;;10.65;71.72;100546.59;5095495;27;45562;-74
2022/11/24 09:24:56;;;;;;;;;3.00;2.00;;;;;10.75;71.82;100565.13;5094738;27;45910;-74
2022/11/24 09:27:22;;;;;;;;;2.50;1.00;;;;;10.74;71.82;100572.13;5093893;27;45717;-74
2022/11/24 09:29:47;;;;;;;;;2.00;1.25;;;;;10.79;71.72;100577.91;5093689;27;46767;-75
2022/11/24 09:35:37;;;;;;;;;3.75;2.75;;;;;10.85;71.60;100569.56;5093268;27;45879;-75
2022/11/24 09:38:02;;;;;;;;;8.25;3.00;;;;;10.88;71.54;100564.13;5093828;27;45872;-75
2022/11/24 09:40:28;;;;;;;;;3.25;2.00;;;;;10.87;71.44;100554.59;5091842;27;46417;-75
2022/11/24 09:43:04;;;;;;;;;4.00;2.00;;;;;10.91;71.30;100547.31;5093215;27;46980;-75
2022/11/24 09:45:41;;;;;;;;;2.25;1.50;;;;;10.96;71.27;100562.75;5093203;27;45656;-75
2022/11/24 09:48:25;;;;;;;;;2.00;2.00;;;;;10.97;71.22;100556.53;5093918;27;45576;-75
2022/11/24 09:50:52;;;;;;;;;3.00;2.75;;;;;10.97;71.29;100552.13;5093061;27;46795;-75
2022/11/24 09:53:39;;;;;;;;;3.00;3.00;;;;;11.00;71.25;100553.69;5092976;27;45967;-76
2022/11/24 09:56:29;;;;;;;;;4.00;3.00;;;;;11.09;71.20;100573.97;5093885;27;45815;-75
2022/11/24 09:59:06;;;;;;;;;2.75;2.00;;;;;11.12;71.17;100574.56;5094423;27;45482;-74
2022/11/24 10:01:35;;;;;;;;;3.25;2.25;;;;;11.13;71.09;100581.50;5093528;27;46403;-76
2022/11/24 10:04:03;;;;;;;;;2.00;1.75;;;;;11.19;71.17;100593.31;5094287;27;46138;-73
2022/11/24 10:06:43;;;;;;;;;3.00;1.75;;;;;11.24;70.98;100604.31;5093670;27;45833;-75
2022/11/24 10:09:30;;;;;;;;;2.25;2.00;;;;;11.27;71.04;100598.84;5094162;27;45524;-74
2022/11/24 10:11:57;;;;;;;;;3.75;2.25;;;;;11.32;71.00;100596.72;5092245;27;46427;-75
2022/11/24 10:14:41;;;;;;;;;3.00;1.00;;;;;11.35;71.04;100586.00;5093893;27;45960;-75
2022/11/24 10:17:21;;;;;;;;;2.50;1.50;;;;;11.39;70.94;100590.06;5093863;27;45722;-76
2022/11/24 10:20:11;;;;;;;;;4.00;2.00;;;;;11.43;70.91;100575.78;5092379;27;45830;-75
2022/11/24 10:23:17;;;;;;;;;3.00;3.00;;;;;11.48;70.80;100572.81;5093775;27;45595;-74
2022/11/24 10:25:59;;;;;;;;;3.00;2.00;;;;;11.51;70.74;100565.53;5093717;27;47030;-76
2022/11/24 10:28:53;;;;;;;;;3.00;2.50;;;;;11.55;70.88;100561.72;5094136;27;45924;-74
2022/11/24 10:34:44;;;;;;;;;3.00;1.50;;;;;11.50;70.64;100532.38;5093473;27;45581;-75
2022/11/24 10:37:09;;;;;;;;;3.50;1.00;;;;;11.65;70.51;100554.84;5092967;27;46161;-75
2022/11/24 10:39:45;;;;;;;;;3.00;3.00;;;;;11.68;70.63;100551.97;5093711;27;45592;-75
2022/11/24 10:42:28;;;;;;;;;2.25;2.00;;;;;11.63;70.58;100534.91;5093708;27;45770;-75
2022/11/24 10:45:08;;;;;;;;;4.00;3.00;;;;;11.75;70.58;100545.34;5093196;27;46408;-74
2022/11/24 10:51:18;;;;;;;;;7.00;2.00;;;;;11.77;70.33;100537.31;5094377;27;45747;-76
2022/11/24 10:53:45;;;;;;;;;3.00;2.00;;;;;11.86;70.18;100543.66;5093365;27;45781;-73
2022/11/24 10:56:11;;;;;;;;;2.00;1.50;;;;;11.86;70.21;100538.41;5093543;27;45670;-75
2022/11/24 10:58:38;;;;;;;;;4.00;2.00;;;;;11.92;70.25;100541.41;5091774;27;46872;-73
2022/11/24 11:01:12;;;;;;;;;2.25;2.25;;;;;11.96;70.01;100539.38;5092082;27;45885;-74
2022/11/24 11:07:18;;;;;;;;;2.25;2.00;;;;;12.04;69.87;100522.03;5083310;27;46186;-73
2022/11/24 11:09:46;;;;;;;;;3.00;2.00;;;;;12.08;69.78;100527.91;5093796;27;45566;-82
2022/11/24 11:12:23;;;;;;;;;4.25;2.50;;;;;12.08;69.78;100509.53;5093441;27;45525;-75
2022/11/24 11:14:49;;;;;;;;;3.25;2.50;;;;;12.16;69.73;100517.63;5093396;27;45674;-74
2022/11/24 11:17:34;;;;;;;;;4.00;4.00;;;;;12.20;69.42;100521.66;5093113;27;47495;-74
2022/11/24 11:20:17;;;;;;;;;3.00;3.00;;;;;12.21;69.64;100515.47;5093432;27;46217;-74
2022/11/24 11:22:45;;;;;;;;;3.25;2.50;;;;;12.28;69.68;100513.19;5093187;27;45699;-74
2022/11/24 11:25:31;;;;;;;;;3.75;3.75;;;;;12.31;69.52;100513.78;5093273;27;45976;-75
2022/11/24 11:28:28;;;;;;;;;4.00;3.00;;;;;12.29;69.12;100507.81;5092645;27;45697;-75
2022/11/24 11:31:04;;;;;;;;;4.00;3.00;;;;;12.36;69.46;100490.59;5091512;27;47196;-74
2022/11/24 11:33:31;;;;;;;;;7.75;2.50;;;;;12.40;69.08;100501.72;5092227;27;45647;-73
2022/11/24 11:36:00;;;;;;;;;6.00;4.25;;;;;12.43;69.34;100485.69;5093160;27;45598;-74
2022/11/24 11:38:36;;;;;;;;;6.00;4.00;;;;;12.44;68.94;100480.31;5092410;27;47104;-74
2022/11/24 11:41:02;;;;;;;;;2.75;1.75;;;;;12.42;68.79;100470.88;5092641;27;46163;-74
2022/11/24 11:43:38;;;;;;;;;4.00;2.00;;;;;12.51;68.92;100472.78;5092747;27;45689;-74
2022/11/24 11:46:10;;;;;;;;;4.75;4.00;;;;;12.53;68.64;100474.31;5092954;27;45643;-74
2022/11/24 11:48:39;;;;;;;;;7.25;4.00;;;;;12.55;68.82;100475.03;5092610;27;45825;-73
2022/11/24 11:51:31;;;;;;;;;6.50;4.00;;;;;12.56;68.62;100470.63;5092868;27;46401;-74
2022/11/24 11:54:14;;;;;;;;;7.25;4.00;;;;;12.61;68.27;100471.06;5092301;27;45572;-75
2022/11/24 11:56:46;;;;;;;;;8.00;5.25;;;;;12.61;68.57;100468.44;5091307;27;45569;-76
2022/11/24 11:59:36;;;;;;;;;7.50;5.00;;;;;12.66;68.13;100471.53;5096395;27;46381;-75
2022/11/24 12:05:33;;;;;;;;;8.50;4.00;;;;;12.75;68.14;100462.03;5095507;27;45771;-74
2022/11/24 12:08:23;;;;;;;;;4.00;4.00;;;;;12.76;67.68;100461.91;5095131;27;45627;-76
2022/11/24 12:11:08;;;;;;;;;5.25;3.25;;;;;12.78;67.50;100454.75;5094618;27;46615;-75
2022/11/24 12:14:06;;;;;;;;;3.00;3.00;;;;;12.81;67.62;100445.75;5095195;27;46127;-73
2022/11/24 12:16:53;;;;;;;;;8.25;7.00;;;;;12.85;67.68;100449.78;5095944;27;45864;-74
2022/11/24 12:23:12;;;;;;;;;4.25;3.50;;;;;12.89;67.35;100441.56;5095694;27;45722;-75
2022/11/24 12:25:49;;;;;;;;;4.00;2.00;;;;;12.90;67.34;100443.19;5083321;27;46397;-73
2022/11/24 12:28:39;;;;;;;;;7.50;3.75;;;;;12.93;67.27;100437.69;5092889;27;45615;-73
2022/11/24 12:31:35;;;;;;;;;5.00;3.50;;;;;12.95;67.74;100442.84;5094504;27;45626;-74
2022/11/24 12:34:39;;;;;;;;;7.00;3.00;;;;;12.98;67.47;100447.81;5032259;28;45708;-74
2022/11/24 12:37:52;;;;;;;;;6.00;4.00;;;;;12.99;67.20;100436.34;5032324;28;46688;-74
2022/11/24 12:40:36;;;;;;;;;4.50;4.00;;;;;13.03;67.52;100438.59;4973240;28;45706;-74
2022/11/24 12:43:21;;;;;;;;;6.00;3.00;;;;;13.01;67.50;100427.34;4973226;28;45756;-76
2022/11/24 12:45:49;;;;;;;;;3.75;2.75;;;;;13.08;67.26;100427.69;4973081;28;47203;-74
2022/11/24 12:48:33;;;;;;;;;5.75;3.00;;;;;13.13;67.16;100429.94;4973278;28;46154;-73
2022/11/24 12:51:00;;;;;;;;;5.00;3.00;;;;;13.14;66.81;100429.81;4972982;28;45657;-75
2022/11/24 12:53:32;;;;;;;;;4.75;3.00;;;;;13.17;66.75;100420.84;4972575;28;45806;-74